Megargel, TX (76370)

11:38 AM CDT on August 28, 2016 (GMT -0500)
olney | | Change Station

Elev 1220 ft 33.37 °N, 98.76 °W | Updated 2 minutes ago

Clear
Clear
87.1 °F
Feels Like 95 °F
N
5.3
Wind Variable Wind from WSW

Today
High -- | Low -- °F
--% Chance of Precip.
Yesterday
High -- | Low -- °F
Precip. -- in
Pressure 30.08 in
Visibility 10.0 miles
Clouds Clear
Heat Index 95 °F
Dew Point 73 °F
Humidity 64%
Rainfall 0.00 in
Snow Depth Not available.
7:06 AM 8:04 PM
Waning Crescent, 14% visible
METAR KRPH 281615Z AUTO 13004KT 10SM CLR 30/21 A3008 RMK AO2 T02970214
Pressure 30.08 in
Visibility 10.0 miles
Clouds Clear
Heat Index 95 °F
Dew Point 73 °F
Humidity 64%
Rainfall 0.00 in
Snow Depth Not available.
7:06 AM 8:04 PM
Waning Crescent, 14% visible
METAR KRPH 281615Z AUTO 13004KT 10SM CLR 30/21 A3008 RMK AO2 T02970214

10-Day Weather Forecast

Almanac

Astronomy

Aug. 28, 2016 Rise Set
Actual Time
Civil Twilight
Nautical Twilight
Astronomical Twilight
Moon
Length of Visible Light
Length of Day
Tomorrow will be .
, % of the Moon is Illuminated

Today's Extremes

State Highs State Lows

Community

WunderPhotos

Upload Photos

1,935,621 photos uploaded!

WunderBlog® & News

Nearby

Air Quality

  Air Quality AQ Index Pollutant
Not available.

Snow Depth

Station Depth Elevation

Earthquake Activity

City Distance Mag. Time & Date
Minimum magnitude displayed is 2.5.

Coastal Water Temperatures

Place Temperature

Stations

Nearby Weather Stations

Station Location Temp. Windchill Dew Point Humidity Wind Precip. Elev Updated Type
                   

Watches & Warnings

There are currently no watches in effect.